Time;durP1;ratioP1;P1;durP2;ratioP2;P2;SDS_P1;SDS_P2;PMS_P1;PMS_P2;Temp;Humidity;BMP_temperature;BMP_pressure;BME280_temperature;BME280_humidity;BME280_pressure;Samples;Min_cycle;Max_cycle;Signal;HPM_P1;HPM_P2
2022/02/03 00:01:14;;;;;;;;;9.00;9.00;;;;;10.73;60.02;101627.34;4958053;28;46285;-60
2022/02/03 00:03:50;;;;;;;;;11.00;9.75;;;;;10.74;59.73;101618.50;4958021;28;45951;-60
2022/02/03 00:06:24;;;;;;;;;16.50;11.00;;;;;10.74;59.60;101615.88;4942441;28;45360;-60
2022/02/03 00:16:13;;;;;;;;;9.25;7.25;;;;;10.73;59.44;101611.56;4940428;28;50135;-60
2022/02/03 00:22:00;;;;;;;;;8.25;5.75;;;;;10.71;58.59;101602.13;4943631;28;45396;-60
2022/02/03 00:27:56;;;;;;;;;7.75;6.50;;;;;10.64;57.96;101593.81;4941016;28;45402;-60
2022/02/03 00:30:32;;;;;;;;;5.25;4.50;;;;;10.62;57.77;101593.94;4957795;28;45229;-60
2022/02/03 00:35:55;;;;;;;;;6.50;5.25;;;;;10.62;57.30;101593.94;4957651;28;45310;-59
2022/02/03 00:48:59;;;;;;;;;4.50;4.50;;;;;10.58;57.73;101591.66;4957730;28;45279;-60
2022/02/03 00:51:25;;;;;;;;;5.75;4.50;;;;;10.57;57.45;101582.94;4957624;28;45457;-60
2022/02/03 00:53:51;;;;;;;;;7.75;7.00;;;;;10.59;57.27;101583.66;4957388;28;47051;-60
2022/02/03 00:56:20;;;;;;;;;5.25;4.00;;;;;10.58;56.94;101581.16;4957390;28;45366;-60
2022/02/03 00:58:58;;;;;;;;;3.75;3.75;;;;;10.57;57.13;101579.47;4940596;28;45413;-61
2022/02/03 01:01:27;;;;;;;;;7.25;4.50;;;;;10.56;57.23;101576.00;4941359;28;45328;-59
2022/02/03 01:03:53;;;;;;;;;3.75;3.00;;;;;10.56;56.87;101572.53;4939860;28;52597;-61
2022/02/03 01:06:20;;;;;;;;;5.00;2.25;;;;;10.55;57.01;101569.06;4922941;28;73214;-60
2022/02/03 01:08:47;;;;;;;;;4.50;3.00;;;;;10.52;57.24;101567.50;4924629;28;45308;-60
2022/02/03 01:11:23;;;;;;;;;3.25;2.75;;;;;10.52;57.05;101571.91;4924583;28;45563;-60
2022/02/03 01:14:01;;;;;;;;;4.25;4.00;;;;;10.51;57.11;101571.06;4957075;28;46580;-59
2022/02/03 01:33:24;;;;;;;;;3.00;2.75;;;;;10.50;57.07;101568.53;4957300;28;45246;-60
2022/02/03 01:43:21;;;;;;;;;4.50;4.00;;;;;10.45;57.14;101561.00;4960018;28;45330;-60
2022/02/03 01:53:28;;;;;;;;;4.00;4.00;;;;;10.39;57.04;101569.31;4960275;28;45318;-60
2022/02/03 01:56:05;;;;;;;;;4.50;4.00;;;;;10.37;56.93;101574.63;4942803;28;46090;-60
2022/02/03 01:58:39;;;;;;;;;8.00;4.25;;;;;10.36;57.38;101562.44;4943755;28;45786;-59
2022/02/03 02:01:04;;;;;;;;;9.00;4.00;;;;;10.36;56.65;101572.13;4960139;28;45314;-60
2022/02/03 02:03:40;;;;;;;;;5.75;4.00;;;;;10.35;56.54;101554.69;4942708;28;45351;-60
2022/02/03 02:06:43;;;;;;;;;3.25;3.25;;;;;10.35;56.69;101559.94;4959903;28;45404;-60
2022/02/03 02:09:31;;;;;;;;;9.25;6.00;;;;;10.33;56.74;101557.41;4959931;28;45374;-60
2022/02/03 02:12:52;;;;;;;;;6.00;4.00;;;;;10.33;56.42;101543.44;4960284;28;45358;-60
2022/02/03 02:42:55;;;;;;;;;6.00;5.50;;;;;10.06;56.50;101498.03;4942808;28;45583;-61
2022/02/03 02:45:42;;;;;;;;;5.00;5.00;;;;;10.04;56.96;101486.81;4959458;28;45228;-60
2022/02/03 02:48:19;;;;;;;;;5.00;4.00;;;;;10.05;57.21;101474.53;4959700;28;45388;-60
2022/02/03 02:50:56;;;;;;;;;8.50;4.25;;;;;10.02;57.00;101469.50;4959318;28;46201;-60
2022/02/03 02:56:34;;;;;;;;;4.00;4.00;;;;;10.00;56.97;101458.25;4944741;28;45432;-61
2022/02/03 02:59:35;;;;;;;;;5.50;5.50;;;;;9.98;57.17;101460.97;4958865;28;45319;-60
2022/02/03 03:35:08;;;;;;;;;4.75;4.75;;;;;9.81;56.54;101372.94;4958562;28;45335;-61
2022/02/03 03:37:46;;;;;;;;;5.00;5.00;;;;;9.81;56.58;101367.69;4958113;28;45333;-60
2022/02/03 03:40:12;;;;;;;;;5.25;5.00;;;;;9.80;56.78;101358.97;4958860;28;45264;-60
2022/02/03 03:42:39;;;;;;;;;6.00;4.00;;;;;9.81;56.67;101357.19;4958060;28;45281;-60
2022/02/03 03:45:06;;;;;;;;;6.00;5.00;;;;;9.81;56.62;101357.19;4941347;28;45412;-60
2022/02/03 03:47:36;;;;;;;;;6.50;5.00;;;;;9.78;56.78;101360.03;4957977;28;45810;-60
2022/02/03 03:50:12;;;;;;;;;4.00;3.00;;;;;9.78;56.90;101352.16;4941285;28;45216;-60
2022/02/03 03:52:55;;;;;;;;;6.25;4.25;;;;;9.76;56.70;101352.28;4941402;28;45386;-60
2022/02/03 03:55:40;;;;;;;;;5.00;4.25;;;;;9.74;56.78;101355.94;4958259;28;46527;-60
2022/02/03 03:58:30;;;;;;;;;6.00;4.25;;;;;9.72;57.08;101353.44;4957837;28;45791;-59
2022/02/03 04:56:45;;;;;;;;;9.00;8.00;;;;;9.57;57.70;101275.84;4957431;28;45458;-60
2022/02/03 05:05:38;;;;;;;;;6.00;6.00;;;;;9.55;57.38;101257.56;4954714;28;46054;-60
2022/02/03 05:08:41;;;;;;;;;6.75;5.50;;;;;9.53;57.57;101253.38;4957372;28;45421;-60
2022/02/03 05:21:28;;;;;;;;;11.00;5.00;;;;;9.52;57.87;101249.94;4945568;28;45287;-60
2022/02/03 05:25:10;;;;;;;;;6.00;4.00;;;;;9.52;57.97;101252.56;4946378;28;45327;-61
2022/02/03 05:32:09;;;;;;;;;3.00;3.00;;;;;9.52;57.60;101242.06;4912061;28;45987;-60
2022/02/03 05:33:49;;;;;;;;;6.75;5.50;;;;;9.51;57.71;101245.63;4951581;28;45901;-60
2022/02/03 05:50:50;;;;;;;;;6.00;5.00;;;;;9.51;57.97;101240.41;4945595;28;45386;-61
2022/02/03 06:01:17;;;;;;;;;6.00;6.00;;;;;9.47;57.84;101237.13;4945495;28;45260;-60
2022/02/03 06:04:04;;;;;;;;;7.75;6.75;;;;;9.45;57.95;101230.34;4959685;28;45868;-60
2022/02/03 06:14:29;;;;;;;;;7.50;7.25;;;;;9.43;58.00;101211.25;4959772;28;45431;-60
2022/02/03 06:27:23;;;;;;;;;14.00;11.75;;;;;9.35;58.19;101198.69;4959596;28;45921;-60
2022/02/03 06:27:39;;;;;;;;;10.00;7.50;;;;;9.32;58.01;101193.66;4959328;28;45919;-60
2022/02/03 06:30:05;;;;;;;;;9.25;9.25;;;;;9.29;58.03;101189.50;4942847;28;45399;-60
2022/02/03 06:32:30;;;;;;;;;10.00;9.25;;;;;9.26;58.27;101173.97;4958988;28;45436;-60
2022/02/03 06:34:56;;;;;;;;;9.50;8.50;;;;;9.25;57.98;101161.00;4958192;28;73780;-60
2022/02/03 06:37:21;;;;;;;;;11.25;8.00;;;;;9.24;57.99;101159.31;4958138;28;73210;-60
2022/02/03 06:39:47;;;;;;;;;12.25;9.50;;;;;9.22;58.10;101156.78;4958843;28;48506;-61
2022/02/03 06:42:12;;;;;;;;;11.50;9.50;;;;;9.22;58.32;101169.06;4958218;28;68741;-60
2022/02/03 06:47:37;;;;;;;;;11.00;10.50;;;;;9.21;58.46;101160.34;4940126;28;45293;-60
2022/02/03 06:52:56;;;;;;;;;11.25;9.75;;;;;9.20;58.30;101142.94;4944780;28;45349;-60
2022/02/03 07:00:23;;;;;;;;;13.75;11.50;;;;;9.19;58.35;101157.88;4959199;28;45350;-60
2022/02/03 07:02:52;;;;;;;;;12.25;12.25;;;;;9.19;58.25;101147.38;4941521;28;45477;-61
2022/02/03 07:05:18;;;;;;;;;26.75;26.25;;;;;9.18;58.32;101150.09;4958816;28;45902;-60
2022/02/03 07:07:43;;;;;;;;;15.25;13.75;;;;;9.17;58.65;101156.28;4959018;28;45176;-60
2022/02/03 07:10:09;;;;;;;;;11.50;9.50;;;;;9.16;58.56;101152.84;4958223;28;64066;-60
2022/02/03 07:12:34;;;;;;;;;13.25;12.75;;;;;9.17;58.41;101159.75;4959076;28;45532;-60
2022/02/03 07:15:02;;;;;;;;;14.25;11.50;;;;;9.17;58.58;101158.91;4958770;28;45286;-59
2022/02/03 07:17:27;;;;;;;;;11.50;10.75;;;;;9.17;58.52;101161.53;4941238;28;45350;-60
2022/02/03 07:20:00;;;;;;;;;19.00;16.75;;;;;9.17;58.51;101159.75;4957859;28;66484;-60
2022/02/03 07:22:25;;;;;;;;;15.00;14.25;;;;;9.19;58.29;101141.28;4958449;28;45490;-60
2022/02/03 07:24:52;;;;;;;;;15.75;13.25;;;;;9.19;58.28;101151.78;4957264;28;75039;-59
2022/02/03 07:27:17;;;;;;;;;13.25;13.00;;;;;9.18;58.26;101160.59;4958611;28;45715;-59
2022/02/03 07:29:42;;;;;;;;;15.50;14.25;;;;;9.17;58.49;101158.91;4958424;28;45433;-60
2022/02/03 07:32:08;;;;;;;;;16.50;16.50;;;;;9.17;58.30;101161.53;4957672;28;63931;-60
2022/02/03 07:34:34;;;;;;;;;15.00;14.00;;;;;9.16;58.49;101152.00;4958360;28;45450;-60
2022/02/03 07:36:59;;;;;;;;;18.00;16.00;;;;;9.16;58.71;101155.47;4958369;28;45365;-60
2022/02/03 07:39:25;;;;;;;;;17.75;14.75;;;;;9.15;58.58;101163.41;4957784;28;45418;-60
2022/02/03 07:41:50;;;;;;;;;19.25;14.00;;;;;9.15;58.95;101179.16;4958389;28;45454;-60
2022/02/03 07:44:16;;;;;;;;;14.00;13.00;;;;;9.14;58.75;101175.72;4958133;28;46079;-60
2022/02/03 07:46:42;;;;;;;;;12.25;12.25;;;;;9.15;58.78;101160.81;4958420;28;45294;-60
2022/02/03 07:49:07;;;;;;;;;17.25;16.00;;;;;9.14;58.77;101170.47;4958126;28;45275;-59
2022/02/03 07:51:33;;;;;;;;;13.50;13.00;;;;;9.16;58.76;101162.47;4957974;28;45723;-60
2022/02/03 07:53:58;;;;;;;;;13.00;13.00;;;;;9.17;58.69;101164.16;4957325;28;69883;-60
2022/02/03 07:56:23;;;;;;;;;16.00;15.25;;;;;9.17;59.03;101170.25;4957222;28;69224;-59
2022/02/03 07:58:49;;;;;;;;;13.25;12.00;;;;;9.17;58.84;101161.53;4957336;28;67932;-60
2022/02/03 08:01:14;;;;;;;;;18.50;16.25;;;;;9.18;58.96;101165.81;4939972;28;65731;-60
2022/02/03 08:03:43;;;;;;;;;15.75;13.00;;;;;9.17;58.85;101158.91;4957915;28;45224;-59
2022/02/03 08:06:13;;;;;;;;;15.25;13.25;;;;;9.18;58.90;101171.06;4958023;28;46007;-60
2022/02/03 08:08:44;;;;;;;;;17.25;14.75;;;;;9.18;59.03;101176.31;4957653;28;45377;-61
2022/02/03 08:11:14;;;;;;;;;16.50;14.25;;;;;9.19;59.01;101168.34;4958163;28;45243;-60
2022/02/03 08:13:55;;;;;;;;;15.25;12.75;;;;;9.20;58.90;101163.94;4957953;28;46028;-60
2022/02/03 08:16:48;;;;;;;;;16.00;13.50;;;;;9.20;58.84;101163.94;4958054;28;45878;-60
2022/02/03 08:19:16;;;;;;;;;14.00;13.75;;;;;9.19;58.85;101162.25;4957296;28;45301;-60
2022/02/03 08:21:46;;;;;;;;;18.00;16.50;;;;;9.20;58.96;101161.31;4957928;28;45349;-60
2022/02/03 08:24:27;;;;;;;;;18.00;15.25;;;;;9.19;58.73;101157.00;4957570;28;46108;-60
2022/02/03 08:32:27;;;;;;;;;20.25;18.00;;;;;9.18;58.63;101169.31;4957813;28;45339;-60
2022/02/03 08:37:22;;;;;;;;;18.50;14.25;;;;;9.19;58.29;101162.25;4957661;28;45905;-60
2022/02/03 08:39:56;;;;;;;;;15.75;13.00;;;;;9.18;58.27;101160.59;4957789;28;45477;-60
2022/02/03 08:42:22;;;;;;;;;15.00;13.25;;;;;9.16;58.49;101163.34;4957656;28;45388;-60
2022/02/03 08:44:47;;;;;;;;;14.00;13.75;;;;;9.17;58.59;101158.91;4957422;28;45997;-60
2022/02/03 08:47:13;;;;;;;;;17.00;13.50;;;;;9.15;58.58;101145.06;4957527;28;45262;-60
2022/02/03 08:49:42;;;;;;;;;19.75;15.75;;;;;9.16;58.55;101165.09;4957561;28;45380;-60
2022/02/03 08:52:16;;;;;;;;;22.25;19.25;;;;;9.14;58.50;101151.25;4933727;28;45330;-59
2022/02/03 08:54:48;;;;;;;;;16.50;12.75;;;;;9.15;58.41;101150.31;4957293;28;46045;-59
2022/02/03 08:57:22;;;;;;;;;14.00;14.00;;;;;9.14;58.73;101139.00;4957331;28;45855;-59
2022/02/03 09:00:17;;;;;;;;;15.00;12.00;;;;;9.18;58.40;101134.34;4957317;28;45437;-59
2022/02/03 09:59:17;;;;;;;;;21.00;17.00;;;;;9.38;58.29;101082.25;4900728;28;45853;-62
2022/02/03 10:01:50;;;;;;;;;20.75;16.25;;;;;9.38;58.58;101082.25;4935637;28;45378;-61
2022/02/03 10:04:22;;;;;;;;;21.75;18.50;;;;;9.39;58.68;101086.53;4939212;28;45474;-61
2022/02/03 10:06:55;;;;;;;;;18.50;17.00;;;;;9.40;58.62;101090.84;4939341;28;45502;-61
2022/02/03 10:09:40;;;;;;;;;23.50;19.00;;;;;9.42;58.43;101084.50;4938959;28;46015;-61
2022/02/03 10:12:06;;;;;;;;;21.00;19.75;;;;;9.44;58.40;101087.84;4938883;28;45221;-61
2022/02/03 10:14:35;;;;;;;;;20.00;17.00;;;;;9.46;58.71;101090.38;4922945;28;45347;-61
2022/02/03 10:17:02;;;;;;;;;23.00;18.25;;;;;9.48;58.31;101088.47;4940410;28;45603;-59
2022/02/03 10:19:34;;;;;;;;;18.00;18.00;;;;;9.49;58.41;101095.38;4940111;28;45976;-60
2022/02/03 10:22:01;;;;;;;;;40.50;34.50;;;;;9.49;58.42;101095.38;4939913;28;45334;-59
2022/02/03 10:24:32;;;;;;;;;21.50;20.50;;;;;9.49;58.22;101095.38;4939857;28;45390;-61
2022/02/03 10:26:57;;;;;;;;;30.75;26.25;;;;;9.50;58.27;101091.81;4940362;28;45443;-61
2022/02/03 10:29:32;;;;;;;;;19.75;18.00;;;;;9.50;58.25;101105.75;4939296;28;60810;-61
2022/02/03 10:31:57;;;;;;;;;18.25;17.00;;;;;9.50;58.27;101097.06;4939966;28;45236;-61
2022/02/03 10:34:27;;;;;;;;;17.50;15.00;;;;;9.52;58.06;101092.53;4939878;28;45477;-61
2022/02/03 10:37:02;;;;;;;;;18.25;16.00;;;;;9.53;57.80;101096.84;4923123;28;45299;-61
2022/02/03 11:03:32;;;;;;;;;26.25;20.75;;;;;9.73;57.65;101094.47;4922158;28;45462;-61
2022/02/03 11:08:37;;;;;;;;;21.75;18.25;;;;;9.76;57.97;101081.13;4939702;28;45438;-61
2022/02/03 11:11:03;;;;;;;;;22.00;19.00;;;;;9.78;57.68;101081.84;4908184;28;46352;-60
2022/02/03 11:13:32;;;;;;;;;16.00;15.50;;;;;9.79;57.63;101067.75;4906000;28;45431;-60
2022/02/03 11:16:05;;;;;;;;;18.25;16.25;;;;;9.80;57.61;101058.94;4938941;28;45451;-61
2022/02/03 11:18:31;;;;;;;;;19.50;17.50;;;;;9.80;57.41;101054.50;4939542;28;45290;-60
2022/02/03 11:20:58;;;;;;;;;21.50;18.00;;;;;9.79;57.14;101044.16;4939144;28;45895;-61
2022/02/03 11:26:04;;;;;;;;;22.25;19.25;;;;;9.75;57.38;101035.69;4939046;28;45315;-60
2022/02/03 12:16:32;;;;;;;;;25.50;20.50;;;;;10.01;57.06;100988.19;4896242;29;46066;-60
2022/02/03 12:19:11;;;;;;;;;25.75;24.25;;;;;10.05;57.36;100983.53;4931435;28;45358;-61
2022/02/03 12:21:51;;;;;;;;;25.50;20.75;;;;;10.07;57.52;100973.72;4935583;28;45331;-60
2022/02/03 12:29:49;;;;;;;;;26.50;21.25;;;;;10.10;57.54;100970.84;4936661;28;45422;-58
2022/02/03 12:32:40;;;;;;;;;29.50;20.50;;;;;10.11;57.08;100977.78;4938337;28;45771;-61
2022/02/03 12:41:03;;;;;;;;;34.00;30.25;;;;;10.10;56.89;100955.94;4938115;28;45389;-61
2022/02/03 12:43:25;;;;;;;;;32.75;30.00;;;;;10.10;57.10;100961.19;4931080;28;46599;-60
2022/02/03 12:45:50;;;;;;;;;32.00;27.75;;;;;10.08;57.25;100957.84;4937941;28;45353;-60
2022/02/03 12:48:24;;;;;;;;;26.75;24.25;;;;;10.08;57.16;100951.75;4937978;28;45177;-61
2022/02/03 12:50:53;;;;;;;;;31.25;27.25;;;;;10.09;57.39;100953.44;4905154;28;45440;-61
2022/02/03 12:53:18;;;;;;;;;37.25;32.00;;;;;10.07;57.56;100956.19;4937946;28;45279;-60
2022/02/03 12:55:45;;;;;;;;;36.00;29.75;;;;;10.08;57.24;100952.63;4937079;28;68243;-61
2022/02/03 12:58:16;;;;;;;;;31.25;24.00;;;;;10.09;57.14;100956.06;4937707;28;45346;-60
2022/02/03 13:00:48;;;;;;;;;31.00;25.25;;;;;10.09;57.44;100950.81;4935965;28;45451;-60
2022/02/03 13:03:16;;;;;;;;;34.50;30.75;;;;;10.10;57.14;100947.22;4937971;28;45379;-61
2022/02/03 13:05:50;;;;;;;;;49.00;37.25;;;;;10.09;57.03;100951.66;4937678;28;46149;-60
2022/02/03 13:08:16;;;;;;;;;46.75;37.50;;;;;10.09;57.68;100958.69;4954004;28;45623;-60
2022/02/03 13:10:41;;;;;;;;;39.50;33.75;;;;;10.09;57.02;100956.06;4956139;28;69319;-61
2022/02/03 13:13:34;;;;;;;;;50.25;38.25;;;;;10.07;57.07;100945.69;4957085;28;45525;-60
2022/02/03 13:16:07;;;;;;;;;31.75;30.00;;;;;10.07;57.49;100943.06;4956458;28;45366;-60
2022/02/03 13:18:36;;;;;;;;;34.50;30.75;;;;;10.06;57.54;100940.56;4956870;28;45845;-60
2022/02/03 13:21:21;;;;;;;;;33.00;29.75;;;;;10.05;57.73;100941.53;4956684;28;45349;-60
2022/02/03 13:23:51;;;;;;;;;27.25;24.00;;;;;10.05;57.61;100937.09;4956684;28;45228;-61
2022/02/03 13:26:23;;;;;;;;;29.75;28.00;;;;;10.06;57.27;100937.94;4956770;28;45441;-60
2022/02/03 13:28:58;;;;;;;;;33.00;28.50;;;;;10.07;57.62;100950.09;4940087;28;45374;-60
2022/02/03 13:31:35;;;;;;;;;33.25;27.75;;;;;10.06;57.59;100937.94;4957105;28;45482;-60
2022/02/03 13:36:35;;;;;;;;;33.00;28.25;;;;;10.04;57.47;100942.50;4956675;28;45295;-60
2022/02/03 13:39:08;;;;;;;;;35.75;29.25;;;;;10.02;57.99;100941.78;4959459;28;45269;-60
2022/02/03 13:41:38;;;;;;;;;30.25;27.50;;;;;10.00;57.93;100938.44;4959535;28;45540;-60
2022/02/03 13:44:07;;;;;;;;;31.75;30.00;;;;;9.97;57.75;100947.38;4959855;28;45496;-60
2022/02/03 13:46:40;;;;;;;;;30.25;29.25;;;;;9.95;57.92;100937.00;4960229;28;46220;-60
2022/02/03 13:49:13;;;;;;;;;30.50;29.50;;;;;9.94;57.95;100937.13;4942956;28;45461;-60
2022/02/03 13:51:40;;;;;;;;;25.50;24.50;;;;;9.93;58.33;100941.53;4960046;28;45349;-60
2022/02/03 13:54:30;;;;;;;;;31.00;27.00;;;;;9.91;58.43;100938.22;4959900;28;45323;-60
2022/02/03 14:11:53;;;;;;;;;41.00;34.25;;;;;9.88;58.88;100921.84;4957862;28;45914;-60
2022/02/03 14:21:18;;;;;;;;;39.50;33.25;;;;;9.77;59.21;100925.34;4959610;28;45473;-60
2022/02/03 14:28:53;;;;;;;;;49.75;38.50;;;;;9.68;59.51;100915.56;4958812;28;45427;-60
2022/02/03 14:31:19;;;;;;;;;55.75;43.50;;;;;9.65;59.58;100914.84;4959321;28;45362;-60
2022/02/03 14:33:44;;;;;;;;;36.75;30.50;;;;;9.62;59.70;100919.50;4959293;28;45986;-59
2022/02/03 14:36:14;;;;;;;;;29.00;26.00;;;;;9.61;59.71;100909.97;4958353;28;45432;-60
2022/02/03 14:38:56;;;;;;;;;48.00;39.25;;;;;9.59;59.96;100914.50;4959027;28;47242;-60
2022/02/03 14:41:30;;;;;;;;;24.25;19.25;;;;;9.59;60.02;100915.31;4941442;28;45363;-60
2022/02/03 14:43:57;;;;;;;;;30.50;29.00;;;;;9.56;60.20;100902.44;4957177;28;45576;-60
2022/02/03 14:46:22;;;;;;;;;30.00;27.75;;;;;9.55;60.22;100911.28;4940605;28;45543;-59
2022/02/03 14:48:49;;;;;;;;;58.25;44.25;;;;;9.57;60.21;100905.91;4942567;28;55104;-60
2022/02/03 14:51:18;;;;;;;;;39.25;31.75;;;;;9.56;60.23;100894.56;4947166;28;45852;-60
2022/02/03 14:53:57;;;;;;;;;42.00;34.50;;;;;9.56;60.11;100891.94;4949300;28;45430;-60
2022/02/03 14:59:07;;;;;;;;;44.75;37.00;;;;;9.59;60.27;100891.72;4953029;28;45467;-60
2022/02/03 15:01:32;;;;;;;;;47.25;37.25;;;;;9.60;60.29;100882.06;4958571;28;45490;-60
2022/02/03 15:04:02;;;;;;;;;34.75;29.25;;;;;9.61;60.55;100879.31;4958762;28;45510;-60
2022/02/03 15:06:35;;;;;;;;;33.00;29.25;;;;;9.63;60.47;100876.59;4958930;28;45384;-61
2022/02/03 15:09:17;;;;;;;;;38.25;33.25;;;;;9.65;60.34;100877.28;4958805;28;45523;-59
2022/02/03 15:14:17;;;;;;;;;36.75;29.75;;;;;9.73;60.29;100888.03;4958586;28;45330;-59
2022/02/03 15:16:42;;;;;;;;;32.75;27.75;;;;;9.76;60.40;100879.06;4940207;28;70624;-61
2022/02/03 15:19:08;;;;;;;;;32.25;29.75;;;;;9.79;60.11;100871.78;4958389;28;50436;-61
2022/02/03 15:21:33;;;;;;;;;37.00;27.75;;;;;9.83;60.34;100882.00;4957604;28;66666;-61
2022/02/03 15:23:59;;;;;;;;;33.75;29.50;;;;;9.86;60.02;100882.63;4958471;28;45558;-61
2022/02/03 15:26:24;;;;;;;;;32.00;29.50;;;;;9.91;60.04;100882.25;4958528;28;45430;-61
2022/02/03 15:28:50;;;;;;;;;40.00;32.00;;;;;9.94;59.83;100890.72;4957543;28;46116;-59
2022/02/03 15:31:15;;;;;;;;;33.75;24.50;;;;;9.99;59.49;100882.47;4957728;28;45302;-60
2022/02/03 15:33:47;;;;;;;;;33.50;28.00;;;;;9.99;59.85;100890.34;4958351;28;45334;-60
2022/02/03 15:36:14;;;;;;;;;39.50;32.00;;;;;10.02;59.90;100881.41;4957320;28;45487;-60
2022/02/03 15:38:46;;;;;;;;;39.25;33.00;;;;;10.03;59.69;100883.06;4956875;28;47442;-60
2022/02/03 15:41:20;;;;;;;;;36.75;31.00;;;;;10.04;59.59;100884.72;4958289;28;45812;-61
2022/02/03 15:43:45;;;;;;;;;27.75;25.25;;;;;10.05;59.86;100881.97;4958210;28;45486;-60
2022/02/03 15:46:13;;;;;;;;;32.25;26.75;;;;;10.06;59.86;100878.38;4957827;28;45444;-61
2022/02/03 15:48:48;;;;;;;;;33.25;24.50;;;;;10.07;59.37;100889.69;4957389;28;45345;-60
2022/02/03 16:01:54;;;;;;;;;33.75;28.75;;;;;10.01;59.66;100887.59;4941780;28;45886;-60
2022/02/03 16:17:41;;;;;;;;;34.75;28.50;;;;;9.95;60.12;100887.13;4957640;28;45383;-61
2022/02/03 16:20:15;;;;;;;;;38.25;31.25;;;;;9.92;60.35;100879.50;4957662;28;45337;-60
2022/02/03 16:22:47;;;;;;;;;32.75;30.00;;;;;9.89;60.31;100879.75;4956958;28;45873;-60
2022/02/03 16:54:30;;;;;;;;;30.50;25.75;;;;;9.75;60.84;100891.34;4957210;28;45943;-60
2022/02/03 16:57:01;;;;;;;;;29.75;23.25;;;;;9.74;60.75;100886.22;4957207;28;45320;-61
2022/02/03 16:59:29;;;;;;;;;30.50;26.25;;;;;9.72;60.88;100886.34;4956316;28;45465;-60
2022/02/03 17:01:54;;;;;;;;;42.00;34.25;;;;;9.70;60.92;100887.41;4939484;28;47169;-60
2022/02/03 17:04:19;;;;;;;;;36.00;27.25;;;;;9.69;61.14;100880.50;4939530;28;45421;-60
2022/02/03 17:06:45;;;;;;;;;32.00;26.00;;;;;9.70;61.04;100882.16;4957029;28;45373;-61
2022/02/03 17:09:11;;;;;;;;;47.75;35.00;;;;;9.70;60.65;100887.41;4956765;28;45564;-61
2022/02/03 17:11:36;;;;;;;;;37.00;30.50;;;;;9.69;61.14;100893.63;4955192;28;70360;-60
2022/02/03 17:14:01;;;;;;;;;36.00;31.00;;;;;9.71;60.94;100891.69;4955656;28;66904;-60
2022/02/03 17:16:27;;;;;;;;;31.75;28.00;;;;;9.71;60.95;100883.84;4956115;28;65858;-61
2022/02/03 17:18:53;;;;;;;;;36.75;31.75;;;;;9.71;61.02;100891.69;4956755;28;45331;-61
2022/02/03 17:21:21;;;;;;;;;44.75;32.50;;;;;9.73;60.96;100888.03;4956015;28;46212;-60
2022/02/03 17:23:46;;;;;;;;;44.75;36.25;;;;;9.74;60.71;100896.72;4956656;28;45763;-60
2022/02/03 17:26:21;;;;;;;;;41.00;34.50;;;;;9.74;60.71;100889.69;4956725;28;46076;-61
2022/02/03 17:28:56;;;;;;;;;31.75;28.00;;;;;9.75;60.71;100888.72;4939144;28;45463;-60
2022/02/03 17:31:51;;;;;;;;;33.50;28.00;;;;;9.74;61.07;100897.56;4956548;28;47118;-61
2022/02/03 18:04:52;;;;;;;;;34.50;31.00;;;;;9.73;61.14;100913.41;4956191;28;45365;-60
2022/02/03 18:36:11;;;;;;;;;34.00;27.25;;;;;9.75;61.31;100917.59;4959159;28;45906;-60
2022/02/03 20:06:15;;;;;;;;;31.50;27.25;;;;;9.67;64.15;100919.13;4938570;28;45275;-60
2022/02/03 20:08:51;;;;;;;;;36.25;32.00;;;;;9.67;64.26;100922.63;4938860;28;45480;-61
2022/02/03 20:11:18;;;;;;;;;31.25;28.25;;;;;9.67;64.31;100924.38;4938501;28;46360;-60
2022/02/03 20:13:46;;;;;;;;;31.00;26.25;;;;;9.67;64.38;100924.38;4938572;28;45254;-60
2022/02/03 20:16:15;;;;;;;;;28.50;24.75;;;;;9.68;64.32;100919.03;4938686;28;45470;-61
2022/02/03 20:18:40;;;;;;;;;26.50;23.00;;;;;9.69;64.26;100917.22;4921861;28;45321;-60
2022/02/03 20:21:06;;;;;;;;;29.25;27.75;;;;;9.68;64.58;100921.66;4937393;28;73215;-60
2022/02/03 20:23:31;;;;;;;;;26.00;22.75;;;;;9.68;64.34;100929.53;4937558;28;69078;-59
2022/02/03 20:25:57;;;;;;;;;26.25;22.50;;;;;9.69;64.39;100925.94;4937759;28;55306;-60
2022/02/03 20:28:26;;;;;;;;;27.75;23.50;;;;;9.69;64.50;100931.19;4938563;28;45307;-61
2022/02/03 20:30:51;;;;;;;;;24.00;22.75;;;;;9.70;64.60;100924.16;4938024;28;46074;-61
2022/02/03 20:33:17;;;;;;;;;33.75;29.25;;;;;9.69;64.63;100925.09;4937959;28;48005;-60
2022/02/03 20:35:42;;;;;;;;;37.25;28.00;;;;;9.70;64.35;100927.63;4921256;28;45316;-60
2022/02/03 20:38:08;;;;;;;;;24.25;24.25;;;;;9.70;64.76;100919.75;4938349;28;45208;-61
2022/02/03 20:40:34;;;;;;;;;26.50;24.75;;;;;9.70;64.71;100924.16;4938091;28;45314;-59
2022/02/03 20:42:59;;;;;;;;;28.00;24.00;;;;;9.70;64.44;100919.75;4938209;28;45968;-60
2022/02/03 20:45:25;;;;;;;;;30.00;25.75;;;;;9.72;64.69;100932.72;4937336;28;64513;-60
2022/02/03 20:47:50;;;;;;;;;30.00;28.50;;;;;9.71;64.56;100925.81;4937998;28;45351;-60
2022/02/03 20:50:20;;;;;;;;;31.75;27.25;;;;;9.72;64.87;100930.97;4937474;28;57428;-60
2022/02/03 20:52:46;;;;;;;;;27.00;25.25;;;;;9.71;64.60;100929.28;4937958;28;45260;-60
2022/02/03 20:55:12;;;;;;;;;26.75;26.25;;;;;9.72;64.56;100935.34;4938051;28;45409;-61
2022/02/03 20:57:37;;;;;;;;;31.25;26.50;;;;;9.72;64.74;100932.72;4937314;28;64525;-60
2022/02/03 21:02:46;;;;;;;;;29.75;26.50;;;;;9.72;64.82;100930.09;4938018;28;45997;-60
2022/02/03 21:05:13;;;;;;;;;33.75;26.75;;;;;9.72;64.80;100930.09;4937901;28;45312;-60
2022/02/03 21:07:40;;;;;;;;;34.25;31.00;;;;;9.72;64.89;100930.97;4938207;28;45514;-61
2022/02/03 21:10:09;;;;;;;;;33.75;26.75;;;;;9.73;65.11;100939.66;4937656;28;46181;-60
2022/02/03 21:12:34;;;;;;;;;34.00;30.00;;;;;9.74;65.27;100928.19;4937802;28;45943;-60
2022/02/03 21:15:00;;;;;;;;;27.25;21.50;;;;;9.75;65.09;100927.25;4937750;28;47119;-61
2022/02/03 21:17:29;;;;;;;;;27.25;24.00;;;;;9.75;65.66;100929.88;4937912;28;45552;-61
2022/02/03 21:19:54;;;;;;;;;33.00;29.00;;;;;9.76;65.53;100935.00;4937672;28;45395;-61
2022/02/03 21:22:21;;;;;;;;;31.00;30.50;;;;;9.76;65.45;100934.16;4937464;28;49859;-60
2022/02/03 21:24:47;;;;;;;;;30.00;27.75;;;;;9.76;65.68;100937.63;4937628;28;45426;-60
2022/02/03 21:27:17;;;;;;;;;30.00;27.25;;;;;9.76;65.94;100934.16;4937514;28;45311;-60
2022/02/03 21:29:43;;;;;;;;;31.00;26.00;;;;;9.75;66.00;100932.50;4920714;28;45922;-60
2022/02/03 21:32:08;;;;;;;;;26.75;25.75;;;;;9.75;65.74;100933.34;4936390;28;45906;-60
2022/02/03 21:34:34;;;;;;;;;29.75;26.25;;;;;9.75;65.93;100935.97;4936638;28;69324;-61
2022/02/03 21:37:00;;;;;;;;;33.00;27.75;;;;;9.75;65.87;100932.50;4937613;28;45471;-60
2022/02/03 21:39:25;;;;;;;;;25.00;21.25;;;;;9.75;65.51;100940.38;4936570;28;71367;-60
2022/02/03 21:41:50;;;;;;;;;26.00;23.75;;;;;9.75;65.68;100938.59;4937045;28;55331;-61
2022/02/03 21:44:16;;;;;;;;;27.75;23.25;;;;;9.76;65.72;100942.03;4936521;28;66509;-60
2022/02/03 21:46:42;;;;;;;;;30.25;25.25;;;;;9.76;65.46;100944.66;4937494;28;45327;-60
2022/02/03 21:49:07;;;;;;;;;25.50;21.00;;;;;9.76;65.50;100950.75;4937015;28;45433;-60
2022/02/03 21:51:39;;;;;;;;;22.75;21.75;;;;;9.74;65.63;100946.56;4937238;28;45336;-60
2022/02/03 21:54:05;;;;;;;;;22.75;20.50;;;;;9.73;65.60;100945.75;4905993;28;45441;-60
2022/02/03 21:56:30;;;;;;;;;23.50;20.25;;;;;9.73;65.84;100944.91;4937457;28;45255;-60
2022/02/03 21:58:56;;;;;;;;;24.25;21.00;;;;;9.72;65.84;100946.72;4938453;28;45337;-60
2022/02/03 22:01:24;;;;;;;;;21.75;19.50;;;;;9.72;65.62;100945.84;4940629;28;45280;-60
2022/02/03 22:03:49;;;;;;;;;22.50;18.50;;;;;9.71;65.79;100950.28;4940522;28;45311;-60
2022/02/03 22:06:15;;;;;;;;;25.00;20.50;;;;;9.70;65.85;100946.00;4940376;28;46126;-60
2022/02/03 22:08:40;;;;;;;;;22.50;19.75;;;;;9.71;65.92;100945.03;4939414;28;72912;-61
2022/02/03 22:11:06;;;;;;;;;19.25;19.00;;;;;9.71;65.79;100941.56;4940370;28;45364;-60
2022/02/03 22:13:37;;;;;;;;;17.50;17.25;;;;;9.70;65.60;100945.13;4940536;28;45272;-60